createdAt,value
2022-11-17T00:00:22.544Z,2.60
2022-11-17T00:01:22.892Z,2.70
2022-11-17T00:02:23.333Z,2.80
2022-11-17T00:03:23.512Z,3.20
2022-11-17T00:04:23.834Z,2.90
2022-11-17T00:05:24.159Z,3.00
2022-11-17T00:06:24.475Z,3.00
2022-11-17T00:07:24.875Z,2.60
2022-11-17T00:08:25.075Z,3.20
2022-11-17T00:09:25.406Z,3.10
2022-11-17T00:10:25.734Z,3.40
2022-11-17T00:11:26.056Z,2.70
2022-11-17T00:12:31.469Z,3.10
2022-11-17T00:13:27.667Z,3.90
2022-11-17T00:14:26.927Z,3.10
2022-11-17T00:15:27.259Z,2.90
2022-11-17T00:16:27.580Z,3.20
2022-11-17T00:17:27.900Z,2.80
2022-11-17T00:18:28.228Z,2.60
2022-11-17T00:19:28.549Z,2.60
2022-11-17T00:20:28.877Z,2.60
2022-11-17T00:21:29.242Z,2.90
2022-11-17T00:22:29.464Z,3.00
2022-11-17T00:23:29.788Z,2.70
2022-11-17T00:24:30.118Z,3.40
2022-11-17T00:25:30.484Z,3.30
2022-11-17T00:26:30.677Z,2.90
2022-11-17T00:27:30.999Z,2.80
2022-11-17T00:28:34.137Z,2.70
2022-11-17T00:29:31.603Z,2.40
2022-11-17T00:30:31.930Z,2.50
2022-11-17T00:31:32.312Z,2.60
2022-11-17T00:32:32.492Z,2.80
2022-11-17T00:33:33.121Z,2.60
2022-11-17T00:34:33.131Z,2.70
2022-11-17T00:35:33.440Z,2.70
2022-11-17T00:36:33.761Z,3.00
2022-11-17T00:37:34.071Z,2.70
2022-11-17T00:38:34.395Z,2.50
2022-11-17T00:39:34.723Z,2.50
2022-11-17T00:40:35.039Z,2.30
2022-11-17T00:41:35.362Z,2.50
2022-11-17T00:42:35.664Z,2.70
2022-11-17T00:43:36.332Z,2.50
2022-11-17T00:44:36.677Z,2.30
2022-11-17T00:45:36.533Z,2.50
2022-11-17T00:46:36.874Z,2.50
2022-11-17T00:47:37.193Z,2.60
2022-11-17T00:48:37.503Z,3.30
2022-11-17T00:49:37.835Z,3.20
2022-11-17T00:50:38.158Z,3.00
2022-11-17T00:51:38.473Z,2.80
2022-11-17T00:52:38.776Z,2.70
2022-11-17T00:53:39.093Z,2.30
2022-11-17T00:54:39.427Z,2.60
2022-11-17T00:55:39.867Z,2.50
2022-11-17T00:56:40.070Z,2.80
2022-11-17T00:57:40.386Z,2.00
2022-11-17T00:58:40.695Z,2.60
2022-11-17T00:59:41.034Z,2.10
2022-11-17T01:00:41.365Z,1.90
2022-11-17T01:01:41.706Z,2.00
2022-11-17T01:02:42.016Z,2.20
2022-11-17T01:03:42.337Z,2.40
2022-11-17T01:04:42.653Z,2.40
2022-11-17T01:05:42.959Z,2.40
2022-11-17T01:06:43.275Z,2.30
2022-11-17T01:07:43.586Z,2.40
2022-11-17T01:08:43.906Z,2.10
2022-11-17T01:09:44.233Z,2.30
2022-11-17T01:10:44.558Z,2.50
2022-11-17T01:11:44.892Z,2.40
2022-11-17T01:12:45.195Z,2.70
2022-11-17T01:13:45.507Z,2.50
2022-11-17T01:14:45.830Z,2.40
2022-11-17T01:15:46.139Z,2.40
2022-11-17T01:16:46.459Z,2.20
2022-11-17T01:17:46.768Z,2.50
2022-11-17T01:18:47.115Z,2.30
2022-11-17T01:19:47.530Z,2.10
2022-11-17T01:20:47.731Z,2.40
2022-11-17T01:21:48.063Z,2.40
2022-11-17T01:22:48.359Z,2.30
2022-11-17T01:23:48.676Z,2.10
2022-11-17T01:24:48.999Z,2.10
2022-11-17T01:25:49.324Z,1.90
2022-11-17T01:26:49.668Z,2.10
2022-11-17T01:27:49.861Z,2.10
2022-11-17T01:28:50.182Z,2.50
2022-11-17T01:29:50.509Z,2.40
2022-11-17T01:30:50.840Z,2.40
2022-11-17T01:31:51.190Z,2.20
2022-11-17T01:32:51.489Z,2.10
2022-11-17T01:33:51.799Z,2.10
2022-11-17T01:34:52.153Z,2.50
2022-11-17T01:35:52.351Z,2.10
2022-11-17T01:36:52.663Z,2.10
2022-11-17T01:37:52.996Z,2.30
2022-11-17T01:38:53.317Z,2.30
2022-11-17T01:39:53.640Z,2.00
2022-11-17T01:40:53.958Z,2.20
2022-11-17T01:41:54.311Z,2.10
2022-11-17T01:42:54.612Z,2.40
2022-11-17T01:43:54.932Z,2.00
2022-11-17T01:44:55.264Z,2.10
2022-11-17T01:45:55.582Z,2.30
2022-11-17T01:47:00.768Z,2.50
2022-11-17T01:47:57.181Z,1.90
2022-11-17T01:48:56.427Z,2.20
2022-11-17T01:49:56.747Z,2.50
2022-11-17T01:50:57.064Z,2.40
2022-11-17T01:51:57.362Z,2.40
2022-11-17T01:52:57.680Z,2.10
2022-11-17T01:53:58.002Z,2.50
2022-11-17T01:54:58.314Z,2.40
2022-11-17T01:55:58.670Z,2.50
2022-11-17T01:56:58.911Z,2.80
2022-11-17T01:57:59.204Z,2.20
2022-11-17T01:58:59.530Z,2.50
2022-11-17T01:59:59.891Z,2.10
2022-11-17T02:01:00.087Z,2.50
2022-11-17T02:02:00.475Z,2.40
2022-11-17T02:03:00.686Z,2.90
2022-11-17T02:04:01.026Z,2.10
2022-11-17T02:05:01.215Z,2.60
2022-11-17T02:06:01.547Z,2.20
2022-11-17T02:07:01.936Z,2.30
2022-11-17T02:08:02.154Z,2.50
2022-11-17T02:09:02.486Z,2.70
2022-11-17T02:10:02.796Z,2.20
2022-11-17T02:11:03.106Z,2.60
2022-11-17T02:12:03.431Z,2.40
2022-11-17T02:13:03.728Z,2.70
2022-11-17T02:14:04.052Z,2.30
2022-11-17T02:15:04.359Z,2.60
2022-11-17T02:16:04.666Z,2.40
2022-11-17T02:17:13.100Z,2.50
2022-11-17T02:18:06.275Z,2.00
2022-11-17T02:19:05.537Z,2.40
2022-11-17T02:20:05.868Z,2.30
2022-11-17T02:21:06.076Z,2.30
2022-11-17T02:22:06.451Z,2.20
2022-11-17T02:23:06.657Z,2.70
2022-11-17T02:24:06.979Z,2.60
2022-11-17T02:25:07.305Z,2.80
2022-11-17T02:26:07.611Z,2.60
2022-11-17T02:27:07.951Z,2.70
2022-11-17T02:28:08.256Z,2.70
2022-11-17T02:29:08.558Z,3.00
2022-11-17T02:30:08.887Z,2.50
2022-11-17T02:31:09.198Z,2.70
2022-11-17T02:32:09.497Z,2.70
2022-11-17T02:33:09.814Z,3.20
2022-11-17T02:34:10.189Z,2.80
2022-11-17T02:35:10.381Z,2.60
2022-11-17T02:36:10.690Z,2.80
2022-11-17T02:37:10.998Z,2.80
2022-11-17T02:38:11.347Z,2.40
2022-11-17T02:39:11.646Z,2.70
2022-11-17T02:40:11.966Z,2.90
2022-11-17T02:41:12.273Z,2.70
2022-11-17T02:42:12.599Z,2.70
2022-11-17T02:43:12.921Z,2.70
2022-11-17T02:44:13.238Z,2.80
2022-11-17T02:45:13.578Z,3.20
2022-11-17T02:46:13.879Z,3.30
2022-11-17T02:47:14.188Z,3.20
2022-11-17T02:48:14.492Z,2.90
2022-11-17T02:49:14.814Z,2.90
2022-11-17T02:50:15.119Z,3.10
2022-11-17T02:51:15.425Z,2.80
2022-11-17T02:52:15.720Z,2.70
2022-11-17T02:53:16.041Z,2.40
2022-11-17T02:54:16.382Z,3.00
2022-11-17T02:55:16.702Z,3.00
2022-11-17T02:56:17.014Z,2.70
2022-11-17T02:57:17.320Z,2.90
2022-11-17T02:58:17.624Z,2.60
2022-11-17T02:59:17.933Z,3.00
2022-11-17T03:00:18.251Z,3.00
2022-11-17T03:01:18.616Z,2.80
2022-11-17T03:02:18.779Z,3.30
2022-11-17T03:03:19.114Z,3.50
2022-11-17T03:04:19.432Z,3.50
2022-11-17T03:05:19.750Z,3.20
2022-11-17T03:06:20.053Z,3.50
2022-11-17T03:07:20.442Z,3.10
2022-11-17T03:08:20.615Z,2.90
2022-11-17T03:09:20.923Z,2.80
2022-11-17T03:10:22.107Z,3.40
2022-11-17T03:11:21.481Z,2.70
2022-11-17T03:12:21.782Z,2.90
2022-11-17T03:13:22.092Z,2.60
2022-11-17T03:14:22.404Z,2.90
2022-11-17T03:15:22.728Z,3.00
2022-11-17T03:16:23.033Z,2.70
2022-11-17T03:17:23.343Z,2.90
2022-11-17T03:18:23.662Z,3.10
2022-11-17T03:19:23.964Z,2.90
2022-11-17T03:20:24.309Z,3.10
2022-11-17T03:21:24.635Z,3.00
2022-11-17T03:22:24.974Z,3.30
2022-11-17T03:23:25.413Z,2.90
2022-11-17T03:24:25.585Z,3.70
2022-11-17T03:25:25.903Z,3.50
2022-11-17T03:26:26.214Z,3.50
2022-11-17T03:27:26.533Z,2.80
2022-11-17T03:28:26.865Z,3.30
2022-11-17T03:29:27.185Z,3.20
2022-11-17T03:30:27.506Z,3.00
2022-11-17T03:31:27.836Z,2.90
2022-11-17T03:32:28.145Z,2.80
2022-11-17T03:33:28.455Z,2.80
2022-11-17T03:34:28.766Z,3.50
2022-11-17T03:35:29.087Z,3.50
2022-11-17T03:36:29.427Z,3.80
2022-11-17T03:37:29.737Z,3.20
2022-11-17T03:38:30.036Z,3.50
2022-11-17T03:39:30.353Z,3.40
2022-11-17T03:40:30.716Z,3.70
2022-11-17T03:41:30.906Z,3.20
2022-11-17T03:42:31.257Z,3.50
2022-11-17T03:43:31.448Z,3.60
2022-11-17T03:44:31.801Z,3.60
2022-11-17T03:45:32.014Z,3.40
2022-11-17T03:46:32.306Z,3.10
2022-11-17T03:47:32.609Z,3.30
2022-11-17T03:48:32.927Z,3.30
2022-11-17T03:49:33.241Z,3.40
2022-11-17T03:50:33.566Z,3.10
2022-11-17T03:51:33.871Z,3.10
2022-11-17T03:52:34.179Z,3.30
2022-11-17T03:53:34.775Z,3.10
2022-11-17T03:54:34.716Z,3.40
2022-11-17T03:55:35.036Z,3.10
2022-11-17T03:56:35.338Z,2.90
2022-11-17T03:57:35.640Z,3.50
2022-11-17T03:58:35.949Z,3.40
2022-11-17T03:59:36.260Z,3.20
2022-11-17T04:00:36.582Z,3.00
2022-11-17T04:01:36.919Z,3.00
2022-11-17T04:02:37.220Z,3.40
2022-11-17T04:03:37.943Z,3.40
2022-11-17T04:04:37.820Z,3.40
2022-11-17T04:05:38.139Z,3.50
2022-11-17T04:06:38.462Z,3.50
2022-11-17T04:07:38.865Z,3.30
2022-11-17T04:08:39.052Z,3.40
2022-11-17T04:09:39.371Z,3.70
2022-11-17T04:10:39.684Z,3.80
2022-11-17T04:11:40.001Z,3.60
2022-11-17T04:12:40.302Z,3.30
2022-11-17T04:13:40.612Z,3.50
2022-11-17T04:14:40.920Z,3.90
2022-11-17T04:15:41.291Z,3.50
2022-11-17T04:16:41.473Z,4.00
2022-11-17T04:17:41.783Z,4.00
2022-11-17T04:18:42.091Z,4.20
2022-11-17T04:19:42.405Z,3.60
2022-11-17T04:20:42.722Z,3.50
2022-11-17T04:21:43.023Z,3.70
2022-11-17T04:22:43.344Z,3.40
2022-11-17T04:23:43.645Z,3.80
2022-11-17T04:24:43.954Z,3.70
2022-11-17T04:25:44.281Z,3.30
2022-11-17T04:26:44.592Z,4.30
2022-11-17T04:27:44.900Z,3.70
2022-11-17T04:28:45.217Z,3.50
2022-11-17T04:29:45.532Z,3.80
2022-11-17T04:30:45.844Z,3.70
2022-11-17T04:31:46.154Z,4.20
2022-11-17T04:32:46.468Z,3.90
2022-11-17T04:33:46.774Z,4.20
2022-11-17T04:34:47.124Z,3.80
2022-11-17T04:35:47.324Z,3.50
2022-11-17T04:36:47.634Z,3.80
2022-11-17T04:37:49.994Z,3.80
2022-11-17T04:38:49.113Z,3.50
2022-11-17T04:39:48.490Z,3.60
2022-11-17T04:40:48.807Z,3.90
2022-11-17T04:41:49.130Z,3.60
2022-11-17T04:42:49.427Z,3.70
2022-11-17T04:43:49.737Z,3.80
2022-11-17T04:44:50.057Z,3.90
2022-11-17T04:45:50.387Z,3.70
2022-11-17T04:46:50.721Z,3.70
2022-11-17T04:47:51.036Z,3.40
2022-11-17T04:48:51.347Z,4.00
2022-11-17T04:49:51.661Z,3.80
2022-11-17T04:50:51.978Z,3.90
2022-11-17T04:51:52.281Z,4.20
2022-11-17T04:52:52.602Z,4.40
2022-11-17T04:53:52.899Z,4.00
2022-11-17T04:54:53.196Z,3.90
2022-11-17T04:55:53.530Z,3.80
2022-11-17T04:56:53.859Z,3.80
2022-11-17T04:58:01.807Z,3.50
2022-11-17T04:59:01.997Z,3.60
2022-11-17T04:59:54.862Z,3.80
2022-11-17T05:00:55.064Z,4.10
2022-11-17T05:01:55.414Z,3.90
2022-11-17T05:02:55.648Z,4.30
2022-11-17T05:03:55.948Z,4.20
2022-11-17T05:04:56.284Z,4.00
2022-11-17T05:05:56.662Z,4.00
2022-11-17T05:06:56.878Z,4.10
2022-11-17T05:07:57.178Z,3.90
2022-11-17T05:08:57.514Z,4.20
2022-11-17T05:09:57.829Z,4.10
2022-11-17T05:10:58.165Z,4.00
2022-11-17T05:11:58.457Z,4.10
2022-11-17T05:12:58.768Z,4.00
2022-11-17T05:13:59.090Z,4.30
2022-11-17T05:14:59.397Z,3.90
2022-11-17T05:15:59.739Z,4.30
2022-11-17T05:17:03.259Z,4.10
2022-11-17T05:18:01.263Z,4.30
2022-11-17T05:19:00.497Z,3.90
2022-11-17T05:20:00.849Z,4.30
2022-11-17T05:21:01.180Z,4.20
2022-11-17T05:22:01.482Z,4.30
2022-11-17T05:23:06.542Z,4.00
2022-11-17T05:24:03.143Z,4.00
2022-11-17T05:25:02.401Z,3.90
2022-11-17T05:26:02.750Z,4.00
2022-11-17T05:27:02.993Z,4.00
2022-11-17T05:28:03.190Z,4.50
2022-11-17T05:29:03.542Z,3.60
2022-11-17T05:30:03.749Z,4.10
2022-11-17T05:31:04.110Z,3.90
2022-11-17T05:32:04.314Z,4.30
2022-11-17T05:33:04.662Z,3.80
2022-11-17T05:34:04.971Z,4.10
2022-11-17T05:35:05.298Z,4.20
2022-11-17T05:36:05.654Z,4.30
2022-11-17T05:37:05.851Z,4.40
2022-11-17T05:38:06.174Z,4.30
2022-11-17T05:39:06.514Z,4.50
2022-11-17T05:40:06.834Z,3.90
2022-11-17T05:41:07.193Z,4.50
2022-11-17T05:42:07.686Z,4.40
2022-11-17T05:43:07.712Z,4.10
2022-11-17T05:44:08.036Z,4.00
2022-11-17T05:45:08.372Z,4.50
2022-11-17T05:46:08.711Z,4.50
2022-11-17T05:47:09.063Z,4.30
2022-11-17T05:48:09.268Z,4.20
2022-11-17T05:49:09.556Z,4.50
2022-11-17T05:50:09.863Z,4.40
2022-11-17T05:51:10.247Z,3.70
2022-11-17T05:52:10.464Z,3.90
2022-11-17T05:53:10.822Z,4.40
2022-11-17T05:54:11.019Z,4.50
2022-11-17T05:55:11.359Z,4.00
2022-11-17T05:56:11.684Z,4.50
2022-11-17T05:57:12.229Z,4.40
2022-11-17T05:58:12.302Z,4.40
2022-11-17T05:59:12.575Z,4.20
2022-11-17T06:00:12.810Z,4.00
2022-11-17T06:01:13.040Z,4.40
2022-11-17T06:02:13.237Z,4.40
2022-11-17T06:03:13.586Z,4.60
2022-11-17T06:04:14.067Z,4.30
2022-11-17T06:05:19.762Z,4.30
2022-11-17T06:06:15.531Z,4.30
2022-11-17T06:07:14.887Z,4.60
2022-11-17T06:08:15.416Z,4.70
2022-11-17T06:09:15.531Z,4.60
2022-11-17T06:10:22.381Z,4.30
2022-11-17T06:11:22.174Z,4.50
2022-11-17T06:12:16.335Z,4.80
2022-11-17T06:13:16.580Z,4.60
2022-11-17T06:14:16.799Z,4.30
2022-11-17T06:15:17.170Z,4.60
2022-11-17T06:16:17.429Z,4.10
2022-11-17T06:17:22.051Z,4.10
2022-11-17T06:18:18.920Z,4.30
2022-11-17T06:19:18.245Z,4.40
2022-11-17T06:20:18.454Z,4.60
2022-11-17T06:21:18.839Z,5.10
2022-11-17T06:22:19.118Z,5.10
2022-11-17T06:23:19.392Z,5.40
2022-11-17T06:24:19.603Z,5.30
2022-11-17T06:25:19.942Z,5.20
2022-11-17T06:26:20.322Z,4.70
2022-11-17T06:27:20.621Z,4.70
2022-11-17T06:28:20.902Z,5.40
2022-11-17T06:29:21.184Z,4.90
2022-11-17T06:30:21.422Z,5.10
2022-11-17T06:31:21.924Z,4.60
2022-11-17T06:32:21.962Z,4.80
2022-11-17T06:33:22.313Z,4.80
2022-11-17T06:34:22.561Z,5.10
2022-11-17T06:35:22.894Z,5.30
2022-11-17T06:36:23.211Z,5.30
2022-11-17T06:37:23.538Z,5.10
2022-11-17T06:38:23.786Z,5.50
2022-11-17T06:39:23.993Z,5.20
2022-11-17T06:40:24.326Z,5.40
2022-11-17T06:41:24.726Z,5.50
2022-11-17T06:42:24.945Z,5.20
2022-11-17T06:43:25.295Z,5.00
2022-11-17T06:44:25.603Z,4.40
2022-11-17T06:45:25.829Z,5.00
2022-11-17T06:46:26.076Z,4.80
2022-11-17T06:47:26.315Z,5.20
2022-11-17T06:48:26.551Z,6.00
2022-11-17T06:49:26.773Z,5.20
2022-11-17T06:50:27.009Z,4.90
2022-11-17T06:51:27.297Z,5.20
2022-11-17T06:52:27.547Z,4.90
2022-11-17T06:53:27.786Z,5.20
2022-11-17T06:54:28.038Z,5.80
2022-11-17T06:55:28.351Z,5.10
2022-11-17T06:56:28.620Z,5.50
2022-11-17T06:57:28.906Z,5.40
2022-11-17T06:58:29.166Z,5.80
2022-11-17T06:59:29.429Z,5.70
2022-11-17T07:00:29.794Z,5.20
2022-11-17T07:01:29.987Z,5.30
2022-11-17T07:02:30.229Z,6.40
2022-11-17T07:03:30.467Z,6.00
2022-11-17T07:04:30.780Z,5.70
2022-11-17T07:05:31.029Z,5.80
2022-11-17T07:06:31.270Z,5.80
2022-11-17T07:07:31.581Z,5.10
2022-11-17T07:08:31.810Z,5.00
2022-11-17T07:09:32.076Z,5.20
2022-11-17T07:10:32.304Z,5.40
2022-11-17T07:11:32.553Z,5.30
2022-11-17T07:12:32.799Z,5.10
2022-11-17T07:13:33.046Z,5.10
2022-11-17T07:14:33.264Z,5.40
2022-11-17T07:15:33.509Z,5.90
2022-11-17T07:16:33.764Z,5.40
2022-11-17T07:17:34.115Z,5.50
2022-11-17T07:18:34.629Z,5.50
2022-11-17T07:19:34.652Z,5.60
2022-11-17T07:20:34.983Z,5.40
2022-11-17T07:21:35.234Z,5.50
2022-11-17T07:22:35.497Z,5.80
2022-11-17T07:23:35.783Z,5.50
2022-11-17T07:24:36.058Z,5.30
2022-11-17T07:25:36.293Z,5.50
2022-11-17T07:26:36.535Z,5.60
2022-11-17T07:27:36.753Z,5.20
2022-11-17T07:28:37.451Z,5.70
2022-11-17T07:29:37.303Z,5.60
2022-11-17T07:30:37.579Z,5.20
2022-11-17T07:31:37.861Z,5.90
2022-11-17T07:32:38.083Z,5.00
2022-11-17T07:33:38.392Z,5.50
2022-11-17T07:34:38.603Z,5.80
2022-11-17T07:35:38.864Z,5.20
2022-11-17T07:36:39.225Z,5.70
2022-11-17T07:37:39.485Z,5.70
2022-11-17T07:38:40.417Z,5.30
2022-11-17T07:39:39.955Z,5.80
2022-11-17T07:40:40.316Z,5.90
2022-11-17T07:41:40.430Z,5.60
2022-11-17T07:42:40.675Z,5.80
2022-11-17T07:43:40.913Z,5.60
2022-11-17T07:44:41.128Z,5.50
2022-11-17T07:45:41.479Z,5.30
2022-11-17T07:46:41.756Z,5.80
2022-11-17T07:47:42.000Z,5.60
2022-11-17T07:48:42.294Z,5.80
2022-11-17T07:49:42.520Z,5.60
2022-11-17T07:50:42.738Z,5.60
2022-11-17T07:51:43.018Z,5.50
2022-11-17T07:52:43.252Z,5.20
2022-11-17T07:53:43.507Z,5.20
2022-11-17T07:54:45.201Z,4.90
2022-11-17T07:55:43.972Z,5.70
2022-11-17T07:56:44.325Z,5.90
2022-11-17T07:57:44.578Z,5.20
2022-11-17T07:58:44.816Z,5.10
2022-11-17T07:59:45.048Z,5.20
2022-11-17T08:00:45.362Z,5.30
2022-11-17T08:01:45.644Z,5.30
2022-11-17T08:02:45.874Z,5.00
2022-11-17T08:03:46.185Z,5.40
2022-11-17T08:04:46.433Z,5.80
2022-11-17T08:05:46.703Z,5.60
2022-11-17T08:06:46.973Z,5.50
2022-11-17T08:07:47.184Z,5.90
2022-11-17T08:08:47.553Z,5.60
2022-11-17T08:09:47.812Z,4.90
2022-11-17T08:10:48.143Z,5.10
2022-11-17T08:11:48.375Z,5.30
2022-11-17T08:12:48.607Z,4.80
2022-11-17T08:13:48.841Z,5.30
2022-11-17T08:14:49.053Z,5.30
2022-11-17T08:15:49.421Z,5.20
2022-11-17T08:16:49.672Z,5.20
2022-11-17T08:17:49.925Z,5.20
2022-11-17T08:18:52.478Z,5.50
2022-11-17T08:19:50.493Z,5.80
2022-11-17T08:20:50.736Z,5.30
2022-11-17T08:21:51.022Z,5.80
2022-11-17T08:22:51.236Z,6.30
2022-11-17T08:23:51.636Z,5.80
2022-11-17T08:24:51.894Z,5.10
2022-11-17T08:25:52.228Z,5.70
2022-11-17T08:26:52.489Z,5.10
2022-11-17T08:27:52.790Z,5.90
2022-11-17T08:28:58.121Z,6.00
2022-11-17T08:29:54.459Z,5.60
2022-11-17T08:30:53.657Z,5.50
2022-11-17T08:31:53.948Z,5.30
2022-11-17T08:32:54.212Z,6.30
2022-11-17T08:33:54.468Z,5.50
2022-11-17T08:34:54.717Z,5.90
2022-11-17T08:35:55.023Z,5.60
2022-11-17T08:36:55.306Z,5.50
2022-11-17T08:37:55.514Z,6.00
2022-11-17T08:38:55.799Z,5.70
2022-11-17T08:39:56.141Z,5.50
2022-11-17T08:40:56.428Z,5.60
2022-11-17T08:41:56.797Z,5.70
2022-11-17T08:43:00.919Z,5.40
2022-11-17T08:43:57.222Z,5.80
2022-11-17T08:44:57.496Z,5.40
2022-11-17T08:45:57.791Z,5.20
2022-11-17T08:46:58.082Z,5.70
2022-11-17T08:47:58.372Z,5.40
2022-11-17T08:48:58.613Z,5.40
2022-11-17T08:49:58.862Z,5.50
2022-11-17T08:50:59.103Z,5.70
2022-11-17T08:51:59.415Z,5.80
2022-11-17T08:52:59.640Z,5.40
2022-11-17T08:53:59.962Z,5.80
2022-11-17T08:55:00.276Z,5.20
2022-11-17T08:56:00.576Z,6.00
2022-11-17T08:57:00.903Z,5.80
2022-11-17T08:58:01.171Z,6.00
2022-11-17T08:59:01.419Z,6.00
2022-11-17T09:00:01.678Z,5.90
2022-11-17T09:01:05.385Z,5.60
2022-11-17T09:02:02.249Z,5.40
2022-11-17T09:03:02.496Z,6.10
2022-11-17T09:04:02.810Z,5.70
2022-11-17T09:05:03.094Z,5.40
2022-11-17T09:06:03.354Z,5.30
2022-11-17T09:07:03.683Z,6.20
2022-11-17T09:08:29.570Z,5.60
2022-11-17T09:09:05.420Z,5.50
2022-11-17T09:10:04.405Z,5.40
2022-11-17T09:11:04.658Z,6.10
2022-11-17T09:12:04.961Z,5.90
2022-11-17T09:13:05.229Z,5.50
2022-11-17T09:14:05.496Z,5.30
2022-11-17T09:15:05.723Z,5.50
2022-11-17T09:16:06.008Z,6.20
2022-11-17T09:17:06.249Z,6.30
2022-11-17T09:18:06.496Z,6.40
2022-11-17T09:19:06.786Z,6.00
2022-11-17T09:20:07.056Z,6.00
2022-11-17T09:21:07.297Z,5.80
2022-11-17T09:22:07.712Z,5.90
2022-11-17T09:23:07.803Z,5.60
2022-11-17T09:24:08.073Z,5.90
2022-11-17T09:25:13.152Z,6.20
2022-11-17T09:26:09.551Z,5.90
2022-11-17T09:27:08.843Z,5.80
2022-11-17T09:28:09.127Z,5.40
2022-11-17T09:29:09.369Z,5.90
2022-11-17T09:30:09.611Z,6.20
2022-11-17T09:31:09.973Z,5.10
2022-11-17T09:32:10.210Z,6.00
2022-11-17T09:33:10.521Z,5.50
2022-11-17T09:34:10.880Z,5.80
2022-11-17T09:35:11.042Z,5.60
2022-11-17T09:36:11.331Z,5.50
2022-11-17T09:37:11.570Z,5.70
2022-11-17T09:38:11.918Z,5.50
2022-11-17T09:39:12.109Z,5.30
2022-11-17T09:40:12.393Z,5.30
2022-11-17T09:41:12.621Z,5.70
2022-11-17T09:42:12.923Z,5.70
2022-11-17T09:43:13.200Z,6.00
2022-11-17T09:44:13.531Z,5.80
2022-11-17T09:45:13.958Z,5.80
2022-11-17T09:46:14.020Z,5.40
2022-11-17T09:47:14.370Z,5.80
2022-11-17T09:48:39.479Z,4.90
2022-11-17T09:49:15.850Z,5.50
2022-11-17T09:50:15.159Z,6.00
2022-11-17T09:51:15.405Z,5.40
2022-11-17T09:52:15.670Z,5.10
2022-11-17T09:53:15.940Z,5.80
2022-11-17T09:54:16.194Z,5.80
2022-11-17T09:55:16.458Z,5.50
2022-11-17T09:56:16.684Z,5.10
2022-11-17T09:57:16.972Z,6.00
2022-11-17T09:58:17.213Z,5.40
2022-11-17T09:59:17.480Z,5.70
2022-11-17T10:00:17.723Z,5.80
2022-11-17T10:01:17.985Z,6.00
2022-11-17T10:02:19.071Z,5.90
2022-11-17T10:03:18.561Z,5.80
2022-11-17T10:04:18.815Z,6.20
2022-11-17T10:05:19.075Z,6.20
2022-11-17T10:06:19.366Z,6.20
2022-11-17T10:07:19.651Z,6.00
2022-11-17T10:08:19.925Z,6.50
2022-11-17T10:09:25.408Z,5.60
2022-11-17T10:10:21.397Z,5.90
2022-11-17T10:11:20.817Z,5.60
2022-11-17T10:12:20.957Z,6.50
2022-11-17T10:13:21.236Z,5.60
2022-11-17T10:14:21.517Z,5.90
2022-11-17T10:15:21.777Z,5.70
2022-11-17T10:16:22.061Z,6.30
2022-11-17T10:17:22.327Z,6.30
2022-11-17T10:18:22.601Z,6.60
2022-11-17T10:19:22.808Z,7.00
2022-11-17T10:20:23.080Z,7.10
2022-11-17T10:21:23.373Z,6.50
2022-11-17T10:22:23.599Z,6.50
2022-11-17T10:23:23.870Z,5.90
2022-11-17T10:24:24.145Z,6.20
2022-11-17T10:25:24.410Z,5.80
2022-11-17T10:26:24.660Z,6.10
2022-11-17T10:27:24.947Z,6.90
2022-11-17T10:28:25.210Z,6.40
2022-11-17T10:29:25.466Z,6.40
2022-11-17T10:30:25.696Z,6.10
2022-11-17T10:31:25.941Z,6.70
2022-11-17T10:32:26.242Z,6.90
2022-11-17T10:33:26.479Z,6.60
2022-11-17T10:34:30.325Z,6.80
2022-11-17T10:35:28.019Z,6.70
2022-11-17T10:36:27.441Z,6.60
2022-11-17T10:37:27.663Z,6.60
2022-11-17T10:38:27.914Z,6.40
2022-11-17T10:39:28.157Z,6.50
2022-11-17T10:40:28.392Z,6.50
2022-11-17T10:41:28.640Z,6.70
2022-11-17T10:42:28.899Z,6.30
2022-11-17T10:43:29.159Z,6.20
2022-11-17T10:44:29.422Z,6.50
2022-11-17T10:45:29.694Z,6.30
2022-11-17T10:46:38.200Z,6.70
2022-11-17T10:47:31.193Z,5.90
2022-11-17T10:48:30.489Z,5.70
2022-11-17T10:49:30.755Z,6.00
2022-11-17T10:50:31.003Z,5.50
2022-11-17T10:51:31.262Z,5.90
2022-11-17T10:52:31.517Z,6.20
2022-11-17T10:53:31.783Z,5.90
2022-11-17T10:54:32.064Z,6.50
2022-11-17T10:55:32.334Z,6.60
2022-11-17T10:56:32.593Z,5.90
2022-11-17T10:57:32.844Z,6.10
2022-11-17T10:58:33.143Z,5.90
2022-11-17T10:59:33.360Z,5.80
2022-11-17T11:00:33.602Z,5.90
2022-11-17T11:01:34.080Z,6.60
2022-11-17T11:02:34.263Z,5.60
2022-11-17T11:03:34.886Z,6.10
2022-11-17T11:04:34.757Z,5.70
2022-11-17T11:05:35.522Z,6.40
2022-11-17T11:06:35.296Z,6.00
2022-11-17T11:07:35.722Z,6.40
2022-11-17T11:08:35.834Z,5.90
2022-11-17T11:09:36.090Z,5.50
2022-11-17T11:10:36.349Z,5.70
2022-11-17T11:11:36.657Z,5.40
2022-11-17T11:12:36.927Z,5.60
2022-11-17T11:13:37.214Z,5.30
2022-11-17T11:14:37.561Z,5.70
2022-11-17T11:15:37.737Z,5.00
2022-11-17T11:16:38.098Z,5.50
2022-11-17T11:17:38.278Z,5.60
2022-11-17T11:18:38.617Z,5.90
2022-11-17T11:19:38.930Z,6.00
2022-11-17T11:20:39.239Z,6.10
2022-11-17T11:21:39.550Z,5.80
2022-11-17T11:22:39.886Z,5.30
2022-11-17T11:23:40.279Z,5.80
2022-11-17T11:24:40.469Z,5.90
2022-11-17T11:25:40.698Z,5.20
2022-11-17T11:26:41.069Z,5.50
2022-11-17T11:27:41.352Z,5.60
2022-11-17T11:28:47.025Z,5.40
2022-11-17T11:29:42.722Z,5.60
2022-11-17T11:30:42.807Z,6.10
2022-11-17T11:31:42.311Z,5.50
2022-11-17T11:32:42.593Z,5.40
2022-11-17T11:33:42.872Z,5.30
2022-11-17T11:34:43.121Z,5.30
2022-11-17T11:35:43.361Z,5.60
2022-11-17T11:36:43.611Z,5.10
2022-11-17T11:37:43.909Z,4.90
2022-11-17T11:38:44.163Z,5.30
2022-11-17T11:39:44.413Z,5.70
2022-11-17T11:40:44.663Z,5.70
2022-11-17T11:41:44.981Z,5.20
2022-11-17T11:42:45.230Z,5.70
2022-11-17T11:43:45.504Z,5.30
2022-11-17T11:44:45.743Z,5.70
2022-11-17T11:45:46.080Z,5.40
2022-11-17T11:46:46.321Z,6.30
2022-11-17T11:47:46.585Z,5.10
2022-11-17T11:48:46.856Z,5.20
2022-11-17T11:49:47.164Z,5.30
2022-11-17T11:50:47.413Z,5.60
2022-11-17T11:51:47.732Z,5.30
2022-11-17T11:52:48.043Z,4.90
2022-11-17T11:53:48.367Z,5.80
2022-11-17T11:54:51.041Z,4.60
2022-11-17T11:55:48.920Z,5.10
2022-11-17T11:56:49.218Z,5.40
2022-11-17T11:57:49.490Z,5.10
2022-11-17T11:58:49.749Z,5.40
2022-11-17T11:59:51.987Z,4.90
2022-11-17T12:00:50.354Z,5.00
2022-11-17T12:01:50.719Z,4.90
2022-11-17T12:02:50.966Z,4.80
2022-11-17T12:03:51.217Z,5.20
2022-11-17T12:04:51.397Z,5.40
2022-11-17T12:05:51.599Z,5.20
2022-11-17T12:06:52.018Z,5.60
2022-11-17T12:07:52.346Z,5.10
2022-11-17T12:08:52.585Z,4.60
2022-11-17T12:09:52.929Z,5.00
2022-11-17T12:10:53.147Z,5.50
2022-11-17T12:11:53.398Z,4.80
2022-11-17T12:12:53.720Z,5.10
2022-11-17T12:13:54.622Z,5.00
2022-11-17T12:14:54.392Z,5.20
2022-11-17T12:15:55.033Z,4.90
2022-11-17T12:16:54.859Z,5.30
2022-11-17T12:17:55.041Z,4.80
2022-11-17T12:18:55.300Z,5.10
2022-11-17T12:19:55.592Z,5.10
2022-11-17T12:20:55.843Z,4.90
2022-11-17T12:21:56.130Z,5.20
2022-11-17T12:22:56.449Z,5.30
2022-11-17T12:23:56.740Z,5.40
2022-11-17T12:24:57.012Z,4.90
2022-11-17T12:25:57.829Z,4.80
2022-11-17T12:26:57.590Z,4.70
2022-11-17T12:27:57.881Z,4.60
2022-11-17T12:28:58.883Z,4.30
2022-11-17T12:29:58.465Z,4.40
2022-11-17T12:30:58.774Z,4.70
2022-11-17T12:31:59.049Z,4.40
2022-11-17T12:32:59.296Z,4.60
2022-11-17T12:33:59.554Z,4.30
2022-11-17T12:34:59.811Z,5.10
2022-11-17T12:36:00.104Z,4.90
2022-11-17T12:37:00.424Z,4.40
2022-11-17T12:38:00.819Z,4.90
2022-11-17T12:39:00.962Z,4.60
2022-11-17T12:40:01.222Z,4.40
2022-11-17T12:41:01.575Z,4.90
2022-11-17T12:42:01.735Z,4.60
2022-11-17T12:43:02.013Z,4.90
2022-11-17T12:44:02.314Z,4.60
2022-11-17T12:45:02.655Z,4.70
2022-11-17T12:46:02.963Z,4.50
2022-11-17T12:47:03.232Z,4.20
2022-11-17T12:48:26.869Z,4.40
2022-11-17T12:49:04.828Z,4.50
2022-11-17T12:50:04.128Z,4.50
2022-11-17T12:51:05.184Z,4.80
2022-11-17T12:52:04.745Z,4.50
2022-11-17T12:53:05.765Z,4.90
2022-11-17T12:54:05.325Z,4.60
2022-11-17T12:55:05.635Z,4.40
2022-11-17T12:56:05.913Z,4.20
2022-11-17T12:57:06.196Z,4.50
2022-11-17T12:58:10.506Z,4.10
2022-11-17T12:59:06.791Z,4.00
2022-11-17T13:00:07.014Z,4.20
2022-11-17T13:01:07.257Z,3.80
2022-11-17T13:02:07.510Z,4.40
2022-11-17T13:03:07.767Z,4.30
2022-11-17T13:04:08.019Z,4.40
2022-11-17T13:05:08.267Z,4.20
2022-11-17T13:06:33.629Z,4.50
2022-11-17T13:07:09.894Z,4.60
2022-11-17T13:08:09.211Z,4.30
2022-11-17T13:09:09.458Z,5.00
2022-11-17T13:10:09.696Z,5.00
2022-11-17T13:11:09.937Z,4.40
2022-11-17T13:12:10.179Z,4.90
2022-11-17T13:13:11.162Z,4.90
2022-11-17T13:14:11.174Z,4.90
2022-11-17T13:15:10.941Z,5.10
2022-11-17T13:16:12.111Z,4.50
2022-11-17T13:17:11.537Z,4.80
2022-11-17T13:18:11.772Z,4.70
2022-11-17T13:19:12.001Z,4.60
2022-11-17T13:20:12.257Z,4.70
2022-11-17T13:21:12.470Z,4.60
2022-11-17T13:22:12.729Z,4.60